General Aviation Weather

Text Reports

Enter one or more of the following location identifiers separated by a space:

Zip Code, Four-Character ICAO or Three-Character IATA airport codes.

METAR - Aviation Routine Weather Report
KMMU - Morristown, New Jersey
Updated at 4:45 PM GMT on February 28, 2015 (11:45 AM EST):
METAR KMMU 281645Z 00000KT 15SM SKC M06/M18 A3082
TAF - Terminal Area Forecast
KMMU - Morristown, New Jersey
Updated at 4:45 PM GMT on February 28, 2015 (11:45 AM EST):
No TAF is currently available for this location.
Decoded:
No decoded TAF is available.
PIREP - Pilot Weather Report
KMMU - Morristown, New Jersey
Updated at 4:45 PM GMT on February 28, 2015 (11:45 AM EST):
No PIREP is currently available for this location.
AIRMET - Airmens Meteorological Information
KMMU - Morristown, New Jersey
Updated at 4:45 PM GMT on February 28, 2015 (11:45 AM EST):
No AIRMET is currently available for this location.
SIGMET - Significant Meteorological Information
KMMU - Morristown, New Jersey
Updated at 4:45 PM GMT on February 28, 2015 (11:45 AM EST):
No SIGMET is currently available for this location.
NOTAM - Notice to Airmen
KMMU - Morristown, New Jersey
Updated at 4:45 PM GMT on February 28, 2015 (11:45 AM EST):
No NOTAM is currently available for this location.
Forecast Area
KMMU - Morristown, New Jersey
Updated at 4:45 PM GMT on February 28, 2015 (11:45 AM EST):
No NOTAM is currently available for this location.
Aviation Weather Maps